Portada
METAR-TAF:

METAR-TAF

Aeroports :

Taixkent, Uzbekistan

latitud: 41-16N, longitud: 069-16E, altitud: 489 m

Observació

L'informe es va fer fa 11 minuts, a les 12:30 UTC
Vent 6 kt del Nord/Nord-Oest, variant entre Oest/Nord-Oest i Nord
Temperatura 15°C
Humitat 31%
Pressió 1026 hPa
Visibilitat 10 km o més
sense núvols per sota de 1500 mi sense presència de cumulonimbus.

METAR: UTTT 241230Z 33006KT 300V010 CAVOK 15/M02 Q1026 R08R/CLRD70 NOSIG

Hora: 17:41 (12:41 UTC)

Pronòstic

L'informe es va fer fa 1 hora i 41 minuts, a les 11:00 UTC
Pronòstic vàlid del 24 a les 12 UTC al 25 a les 12 UTC
Vent 10 kt del Nord-Est
Visibilitat: 7000 m
Temporalment
l' 24 a les 12 UTC al 24 a les 17 UTC
Vent 12 kt del Nord-Oest

TAF: UTTT 241100Z 2412/2512 04010KT 7000 NSC TEMPO 2412/2417 31012KT

Observacions i pronòstics meteorològics de més de 4000 aeroports (METAR i TAF).

Les estacions disponibles són els punts grocs i vermells al mapa.

Posi el ratolí al punt desitjat per veure el nom de l'estació.

Feu clic per veure les observacions i els pronòstics meteorològics.

Per canviar el mapa: feu clic els botons verds amb una creu de color negre per apropar; al botó verd amb un guió per allunyar la imatge; o en les fletxes verdes per a mapes adjacents.


METAR-TAF: